createdAt,value
2018-01-07T00:00:08.145Z,86.18
2018-01-07T00:02:36.165Z,86.23
2018-01-07T00:05:07.684Z,86.18
2018-01-07T00:07:35.725Z,86.37
2018-01-07T00:10:06.453Z,86.47
2018-01-07T00:12:34.480Z,85.88
2018-01-07T00:15:06.018Z,86.10
2018-01-07T00:17:34.100Z,85.81
2018-01-07T00:20:05.598Z,85.66
2018-01-07T00:22:33.625Z,85.89
2018-01-07T00:27:34.039Z,86.13
2018-01-07T00:30:05.206Z,86.36
2018-01-07T00:32:33.353Z,86.03
2018-01-07T00:35:06.110Z,85.78
2018-01-07T00:37:34.106Z,85.79
2018-01-07T00:40:05.228Z,85.96
2018-01-07T00:42:33.232Z,85.90
2018-01-07T00:45:04.343Z,85.76
2018-01-07T00:47:32.346Z,85.60
2018-01-07T00:50:00.372Z,85.80
2018-01-07T00:52:28.522Z,85.60
2018-01-07T00:54:56.558Z,85.16
2018-01-07T00:57:24.700Z,85.31
2018-01-07T00:59:52.736Z,85.09
2018-01-07T01:02:20.759Z,85.31
2018-01-07T01:04:48.765Z,85.24
2018-01-07T01:07:16.850Z,85.37
2018-01-07T01:09:44.852Z,85.85
2018-01-07T01:12:12.890Z,85.36
2018-01-07T01:14:40.896Z,85.45
2018-01-07T01:17:08.952Z,85.36
2018-01-07T01:19:37.006Z,85.64
2018-01-07T01:22:05.009Z,85.90
2018-01-07T01:24:33.441Z,85.62
2018-01-07T01:27:01.481Z,85.35
2018-01-07T01:29:29.596Z,85.52
2018-01-07T01:31:57.599Z,85.58
2018-01-07T01:34:25.659Z,85.75
2018-01-07T01:36:53.804Z,85.70
2018-01-07T01:39:21.836Z,85.88
2018-01-07T01:41:49.862Z,85.85
2018-01-07T01:44:17.884Z,85.95
2018-01-07T01:46:45.892Z,86.01
2018-01-07T01:49:22.540Z,85.51
2018-01-07T01:51:50.553Z,85.76
2018-01-07T01:54:18.572Z,86.01
2018-01-07T01:56:46.610Z,86.20
2018-01-07T01:59:14.680Z,85.89
2018-01-07T02:01:42.732Z,85.81
2018-01-07T02:04:10.754Z,85.60
2018-01-07T02:06:38.780Z,85.67
2018-01-07T02:09:06.788Z,85.82
2018-01-07T02:11:35.109Z,85.47
2018-01-07T02:14:03.608Z,86.04
2018-01-07T02:16:32.260Z,85.91
2018-01-07T02:19:00.280Z,85.95
2018-01-07T02:21:28.316Z,85.99
2018-01-07T02:23:56.360Z,86.05
2018-01-07T02:26:24.458Z,86.33
2018-01-07T02:28:52.464Z,86.27
2018-01-07T02:31:20.495Z,85.89
2018-01-07T02:33:48.524Z,86.46
2018-01-07T02:36:16.529Z,86.53
2018-01-07T02:38:44.565Z,86.62
2018-01-07T02:41:12.768Z,86.42
2018-01-07T02:43:41.272Z,86.23
2018-01-07T02:46:10.134Z,86.54
2018-01-07T02:48:38.336Z,86.54
2018-01-07T02:51:06.370Z,86.47
2018-01-07T02:53:34.695Z,86.90
2018-01-07T02:56:02.844Z,86.87
2018-01-07T02:58:31.080Z,86.88
2018-01-07T03:00:59.100Z,86.80
2018-01-07T03:03:27.176Z,86.82
2018-01-07T03:05:55.186Z,86.69
2018-01-07T03:08:23.193Z,86.32
2018-01-07T03:10:51.228Z,86.25
2018-01-07T03:13:19.252Z,86.81
2018-01-07T03:15:47.296Z,86.60
2018-01-07T03:18:15.324Z,86.68
2018-01-07T03:20:43.341Z,87.09
2018-01-07T03:23:11.352Z,87.34
2018-01-07T03:25:39.517Z,86.78
2018-01-07T03:28:07.528Z,86.52
2018-01-07T03:30:36.397Z,86.55
2018-01-07T03:33:04.419Z,86.56
2018-01-07T03:35:32.453Z,86.37
2018-01-07T03:38:00.498Z,86.42
2018-01-07T03:40:28.540Z,87.11
2018-01-07T03:42:56.567Z,86.39
2018-01-07T03:45:24.685Z,86.02
2018-01-07T03:47:52.750Z,85.89
2018-01-07T03:50:20.772Z,86.25
2018-01-07T03:52:48.783Z,86.00
2018-01-07T03:55:17.880Z,86.32
2018-01-07T03:57:45.937Z,85.97
2018-01-07T04:00:13.946Z,86.57
2018-01-07T04:02:41.977Z,86.67
2018-01-07T04:05:09.980Z,85.96
2018-01-07T04:07:38.017Z,85.31
2018-01-07T04:10:06.022Z,85.52
2018-01-07T04:12:34.059Z,85.91
2018-01-07T04:15:05.494Z,85.95
2018-01-07T04:17:33.513Z,85.93
2018-01-07T04:20:08.052Z,85.85
2018-01-07T04:22:36.083Z,85.89
2018-01-07T04:25:07.319Z,85.23
2018-01-07T04:27:35.320Z,85.19
2018-01-07T04:30:06.692Z,85.63
2018-01-07T04:32:34.716Z,84.77
2018-01-07T04:35:05.878Z,84.87
2018-01-07T04:37:34.892Z,84.56
2018-01-07T04:40:06.786Z,84.29
2018-01-07T04:42:34.786Z,84.54
2018-01-07T04:45:06.438Z,83.95
2018-01-07T04:47:34.446Z,84.45
2018-01-07T04:50:05.517Z,84.51
2018-01-07T04:52:33.733Z,84.25
2018-01-07T04:55:08.245Z,84.49
2018-01-07T04:57:36.248Z,83.97
2018-01-07T05:00:07.375Z,84.15
2018-01-07T05:02:35.384Z,84.44
2018-01-07T05:05:06.927Z,84.05
2018-01-07T05:07:34.952Z,83.87
2018-01-07T05:10:06.232Z,83.98
2018-01-07T05:12:34.267Z,82.91
2018-01-07T05:15:05.403Z,83.01
2018-01-07T05:17:33.482Z,82.82
2018-01-07T05:20:04.493Z,82.26
2018-01-07T05:22:32.517Z,82.21
2018-01-07T05:25:01.989Z,82.14
2018-01-07T05:27:31.803Z,82.85
2018-01-07T05:29:59.821Z,83.48
2018-01-07T05:32:33.493Z,83.59
2018-01-07T05:35:04.443Z,83.79
2018-01-07T05:37:32.459Z,83.63
2018-01-07T05:40:04.436Z,82.99
2018-01-07T05:42:32.425Z,83.03
2018-01-07T05:45:02.205Z,83.17
2018-01-07T05:47:31.580Z,82.82
2018-01-07T05:49:59.614Z,82.90
2018-01-07T05:52:27.618Z,84.15
2018-01-07T05:54:55.651Z,86.00
2018-01-07T05:57:24.198Z,84.97
2018-01-07T05:59:52.542Z,83.54
2018-01-07T06:02:20.799Z,82.84
2018-01-07T06:04:48.796Z,82.04
2018-01-07T06:07:16.918Z,81.73
2018-01-07T06:09:44.926Z,82.45
2018-01-07T06:12:12.945Z,80.11
2018-01-07T06:14:40.940Z,80.55
2018-01-07T06:17:08.961Z,80.65
2018-01-07T06:19:37.580Z,79.99
2018-01-07T06:22:05.753Z,79.22
2018-01-07T06:24:33.806Z,78.91
2018-01-07T06:27:01.825Z,79.85
2018-01-07T06:29:29.843Z,79.54
2018-01-07T06:31:57.852Z,79.14
2018-01-07T06:34:26.208Z,79.02
2018-01-07T06:36:54.380Z,78.13
2018-01-07T06:39:22.393Z,78.77
2018-01-07T06:41:50.701Z,78.15
2018-01-07T06:44:18.718Z,77.45
2018-01-07T06:46:46.719Z,77.29
2018-01-07T06:49:14.740Z,77.78
2018-01-07T06:51:43.433Z,76.70
2018-01-07T06:54:11.485Z,77.15
2018-01-07T06:56:39.485Z,77.08
2018-01-07T06:59:07.732Z,77.40
2018-01-07T07:01:35.744Z,77.50
2018-01-07T07:04:03.785Z,77.98
2018-01-07T07:06:31.792Z,77.50
2018-01-07T07:08:59.797Z,77.07
2018-01-07T07:11:27.811Z,76.87
2018-01-07T07:13:56.380Z,76.42
2018-01-07T07:16:24.638Z,75.95
2018-01-07T07:18:52.638Z,75.23
2018-01-07T07:21:20.811Z,75.47
2018-01-07T07:23:48.808Z,75.05
2018-01-07T07:26:16.820Z,74.89
2018-01-07T07:28:44.833Z,74.85
2018-01-07T07:31:12.866Z,74.69
2018-01-07T07:33:40.861Z,74.22
2018-01-07T07:36:08.875Z,75.23
2018-01-07T07:38:36.963Z,73.86
2018-01-07T07:41:05.013Z,73.93
2018-01-07T07:43:33.196Z,75.71
2018-01-07T07:46:01.152Z,75.19
2018-01-07T07:48:29.175Z,76.17
2018-01-07T07:50:57.173Z,75.21
2018-01-07T07:53:25.426Z,75.34
2018-01-07T07:55:53.532Z,75.67
2018-01-07T07:58:21.551Z,75.65
2018-01-07T08:00:49.569Z,74.42
2018-01-07T08:03:17.603Z,74.70
2018-01-07T08:05:45.604Z,75.43
2018-01-07T08:08:13.617Z,74.68
2018-01-07T08:10:41.688Z,74.16
2018-01-07T08:13:09.668Z,74.32
2018-01-07T08:15:37.700Z,74.53
2018-01-07T08:18:05.820Z,74.26
2018-01-07T08:20:34.004Z,74.92
2018-01-07T08:23:02.020Z,74.75
2018-01-07T08:25:30.169Z,73.95
2018-01-07T08:27:58.240Z,74.54
2018-01-07T08:30:26.736Z,74.16
2018-01-07T08:32:55.242Z,75.19
2018-01-07T08:35:23.262Z,75.04
2018-01-07T08:37:51.270Z,74.53
2018-01-07T08:40:20.111Z,74.86
2018-01-07T08:42:48.108Z,75.16
2018-01-07T08:45:16.152Z,74.92
2018-01-07T08:47:44.193Z,75.76
2018-01-07T08:50:12.208Z,75.61
2018-01-07T08:52:40.214Z,74.39
2018-01-07T08:55:08.212Z,74.77
2018-01-07T08:57:36.248Z,73.88
2018-01-07T09:00:05.943Z,73.33
2018-01-07T09:02:33.964Z,72.55
2018-01-07T09:05:08.305Z,72.47
2018-01-07T09:07:36.357Z,72.78
2018-01-07T09:10:06.170Z,71.14
2018-01-07T09:12:34.184Z,69.95
2018-01-07T09:15:09.002Z,70.30
2018-01-07T09:17:37.034Z,70.36
2018-01-07T09:20:06.164Z,69.42
2018-01-07T09:22:34.202Z,70.12
2018-01-07T09:25:05.833Z,69.92
2018-01-07T09:27:33.867Z,69.86
2018-01-07T09:30:08.388Z,69.20
2018-01-07T09:32:36.402Z,69.02
2018-01-07T09:35:05.940Z,69.05
2018-01-07T09:37:33.974Z,68.66
2018-01-07T09:40:09.038Z,68.71
2018-01-07T09:42:37.139Z,69.07
2018-01-07T09:45:06.643Z,68.78
2018-01-07T09:47:34.652Z,68.55
2018-01-07T09:50:07.497Z,67.99
2018-01-07T09:52:35.496Z,68.14
2018-01-07T09:55:06.733Z,67.63
2018-01-07T09:57:34.730Z,66.82
2018-01-07T10:00:09.410Z,66.77
2018-01-07T10:02:37.409Z,66.49
2018-01-07T10:05:06.581Z,66.34
2018-01-07T10:07:34.570Z,66.62
2018-01-07T10:10:05.854Z,67.06
2018-01-07T10:12:33.854Z,67.87
2018-01-07T10:15:08.227Z,69.58
2018-01-07T10:17:36.359Z,67.82
2018-01-07T10:20:09.157Z,66.81
2018-01-07T10:22:37.655Z,66.77
2018-01-07T10:25:06.804Z,66.47
2018-01-07T10:27:35.129Z,66.75
2018-01-07T10:30:06.069Z,67.28
2018-01-07T10:32:34.084Z,67.02
2018-01-07T10:35:08.988Z,67.49
2018-01-07T10:37:37.024Z,67.05
2018-01-07T10:40:06.135Z,67.37
2018-01-07T10:42:34.159Z,67.30
2018-01-07T10:45:07.539Z,67.14
2018-01-07T10:47:35.712Z,66.50
2018-01-07T10:50:06.975Z,66.75
2018-01-07T10:52:35.316Z,66.58
2018-01-07T10:55:06.371Z,66.86
2018-01-07T10:57:34.383Z,66.94
2018-01-07T11:00:09.057Z,66.56
2018-01-07T11:02:37.051Z,66.94
2018-01-07T11:05:06.198Z,66.91
2018-01-07T11:07:34.184Z,66.13
2018-01-07T11:10:07.555Z,66.25
2018-01-07T11:12:35.740Z,66.36
2018-01-07T11:15:07.272Z,66.55
2018-01-07T11:17:35.260Z,66.29
2018-01-07T11:20:06.112Z,66.60
2018-01-07T11:22:34.425Z,66.27
2018-01-07T11:25:09.267Z,66.99
2018-01-07T11:27:37.615Z,66.44
2018-01-07T11:30:06.671Z,66.54
2018-01-07T11:32:35.225Z,66.86
2018-01-07T11:35:07.623Z,66.02
2018-01-07T11:37:35.651Z,66.60
2018-01-07T11:40:06.077Z,66.12
2018-01-07T11:42:34.105Z,66.43
2018-01-07T11:45:08.575Z,66.58
2018-01-07T11:47:36.659Z,66.85
2018-01-07T11:50:06.500Z,66.48
2018-01-07T11:52:35.019Z,66.25
2018-01-07T11:55:06.879Z,66.70
2018-01-07T11:57:35.204Z,66.92
2018-01-07T12:00:06.338Z,66.48
2018-01-07T12:02:34.328Z,66.20
2018-01-07T12:05:05.581Z,66.10
2018-01-07T12:07:33.852Z,66.39
2018-01-07T12:10:04.905Z,66.93
2018-01-07T12:12:33.424Z,65.72
2018-01-07T12:15:04.551Z,65.91
2018-01-07T12:17:32.538Z,65.82
2018-01-07T12:20:00.605Z,66.16
2018-01-07T12:22:31.640Z,66.42
2018-01-07T12:24:59.711Z,66.03
2018-01-07T12:27:27.779Z,65.45
2018-01-07T12:29:56.736Z,65.77
2018-01-07T12:32:25.516Z,65.72
2018-01-07T12:34:57.137Z,66.05
2018-01-07T12:37:25.181Z,65.79
2018-01-07T12:39:53.673Z,66.70
2018-01-07T12:42:21.698Z,65.25
2018-01-07T12:44:49.929Z,65.90
2018-01-07T12:47:18.173Z,65.41
2018-01-07T12:49:50.104Z,65.80
2018-01-07T12:52:18.156Z,65.46
2018-01-07T12:54:46.469Z,65.58
2018-01-07T12:57:14.559Z,65.10
2018-01-07T12:59:42.590Z,65.27
2018-01-07T13:02:10.730Z,65.34
2018-01-07T13:04:38.755Z,65.49
2018-01-07T13:07:06.777Z,65.35
2018-01-07T13:09:34.797Z,65.99
2018-01-07T13:12:02.812Z,64.90
2018-01-07T13:14:30.821Z,65.00
2018-01-07T13:16:58.839Z,64.90
2018-01-07T13:19:26.874Z,65.78
2018-01-07T13:21:54.914Z,65.45
2018-01-07T13:24:23.106Z,65.53
2018-01-07T13:26:51.117Z,65.07
2018-01-07T13:29:19.105Z,65.86
2018-01-07T13:31:47.337Z,65.58
2018-01-07T13:34:15.553Z,65.16
2018-01-07T13:36:43.704Z,64.96
2018-01-07T13:39:11.700Z,65.12
2018-01-07T13:41:39.728Z,65.03
2018-01-07T13:44:07.748Z,65.47
2018-01-07T13:46:35.768Z,65.30
2018-01-07T13:49:03.768Z,65.34
2018-01-07T13:51:32.275Z,65.49
2018-01-07T13:54:00.492Z,64.85
2018-01-07T13:56:28.510Z,64.59
2018-01-07T13:58:56.526Z,64.73
2018-01-07T14:01:24.521Z,64.56
2018-01-07T14:03:52.553Z,64.48
2018-01-07T14:06:21.761Z,65.10
2018-01-07T14:08:49.801Z,65.27
2018-01-07T14:11:17.830Z,65.62
2018-01-07T14:13:45.843Z,65.35
2018-01-07T14:16:14.066Z,64.81
2018-01-07T14:18:42.011Z,65.71
2018-01-07T14:21:10.212Z,64.85
2018-01-07T14:23:38.241Z,65.09
2018-01-07T14:26:06.293Z,64.88
2018-01-07T14:28:34.298Z,65.81
2018-01-07T14:31:02.364Z,65.65
2018-01-07T14:33:30.396Z,66.03
2018-01-07T14:35:58.478Z,66.07
2018-01-07T14:38:26.489Z,65.49
2018-01-07T14:40:54.489Z,66.13
2018-01-07T14:43:22.530Z,65.47
2018-01-07T14:45:50.539Z,65.42
2018-01-07T14:48:19.195Z,65.55
2018-01-07T14:50:47.709Z,65.34
2018-01-07T14:53:15.739Z,65.28
2018-01-07T14:55:43.760Z,65.62
2018-01-07T14:58:11.863Z,65.26
2018-01-07T15:00:39.872Z,65.12
2018-01-07T15:03:08.408Z,66.55
2018-01-07T15:05:36.456Z,65.55
2018-01-07T15:08:04.452Z,66.09
2018-01-07T15:10:32.490Z,65.54
2018-01-07T15:13:00.477Z,65.67
2018-01-07T15:15:28.508Z,65.49
2018-01-07T15:17:56.826Z,66.04
2018-01-07T15:20:24.821Z,65.75
2018-01-07T15:22:52.832Z,65.99
2018-01-07T15:25:20.916Z,66.03
2018-01-07T15:27:48.936Z,66.12
2018-01-07T15:30:16.975Z,66.52
2018-01-07T15:32:45.021Z,66.67
2018-01-07T15:35:13.047Z,66.78
2018-01-07T15:37:41.033Z,66.78
2018-01-07T15:40:09.201Z,66.95
2018-01-07T15:42:37.208Z,66.82
2018-01-07T15:45:07.265Z,67.00
2018-01-07T15:47:35.279Z,66.98
2018-01-07T15:50:06.673Z,67.08
2018-01-07T15:52:34.708Z,66.95
2018-01-07T15:55:06.253Z,66.84
2018-01-07T15:57:34.273Z,67.11
2018-01-07T16:00:08.744Z,67.83
2018-01-07T16:02:37.162Z,67.51
2018-01-07T16:05:08.436Z,66.84
2018-01-07T16:07:36.722Z,66.75
2018-01-07T16:10:07.653Z,66.91
2018-01-07T16:12:35.665Z,67.26
2018-01-07T16:15:07.122Z,67.08
2018-01-07T16:17:35.149Z,67.29
2018-01-07T16:20:06.482Z,67.34
2018-01-07T16:22:34.513Z,67.56
2018-01-07T16:25:06.132Z,67.59
2018-01-07T16:27:34.193Z,67.58
2018-01-07T16:30:07.641Z,67.73
2018-01-07T16:32:35.691Z,67.61
2018-01-07T16:35:06.732Z,67.62
2018-01-07T16:37:34.763Z,67.62
2018-01-07T16:40:06.260Z,67.50
2018-01-07T16:42:34.374Z,67.98
2018-01-07T16:45:08.802Z,68.53
2018-01-07T16:47:36.815Z,67.70
2018-01-07T16:50:08.373Z,67.75
2018-01-07T16:52:37.070Z,68.10
2018-01-07T16:55:06.749Z,68.07
2018-01-07T16:57:34.744Z,68.05
2018-01-07T17:00:05.883Z,68.08
2018-01-07T17:02:33.899Z,68.09
2018-01-07T17:05:08.644Z,68.46
2018-01-07T17:07:36.818Z,68.16
2018-01-07T17:10:08.530Z,68.22
2018-01-07T17:12:36.513Z,68.24
2018-01-07T17:15:07.621Z,68.34
2018-01-07T17:17:35.660Z,69.27
2018-01-07T17:20:07.286Z,68.31
2018-01-07T17:22:35.313Z,68.93
2018-01-07T17:25:06.728Z,68.54
2018-01-07T17:27:34.753Z,68.60
2018-01-07T17:30:06.791Z,68.76
2018-01-07T17:32:34.795Z,68.84
2018-01-07T17:35:05.943Z,68.84
2018-01-07T17:37:33.982Z,69.15
2018-01-07T17:40:08.357Z,68.65
2018-01-07T17:42:36.748Z,68.87
2018-01-07T17:45:05.889Z,68.58
2018-01-07T17:47:34.073Z,68.71
2018-01-07T17:50:05.318Z,69.20
2018-01-07T17:52:33.337Z,69.59
2018-01-07T17:57:34.982Z,69.15
2018-01-07T18:00:06.158Z,68.67
2018-01-07T18:02:34.347Z,69.32
2018-01-07T18:05:06.040Z,69.36
2018-01-07T18:07:34.085Z,68.85
2018-01-07T18:10:06.207Z,68.90
2018-01-07T18:12:36.273Z,68.92
2018-01-07T18:15:07.838Z,69.24
2018-01-07T18:17:35.851Z,68.84
2018-01-07T18:20:07.259Z,68.67
2018-01-07T18:22:36.601Z,68.55
2018-01-07T18:25:07.737Z,69.20
2018-01-07T18:27:35.996Z,68.99
2018-01-07T18:30:07.264Z,68.82
2018-01-07T18:32:35.296Z,69.00
2018-01-07T18:35:06.755Z,69.32
2018-01-07T18:37:34.788Z,70.15
2018-01-07T18:40:05.953Z,69.43
2018-01-07T18:42:33.987Z,69.68
2018-01-07T18:45:08.339Z,69.61
2018-01-07T18:47:36.369Z,69.62
2018-01-07T18:50:05.945Z,69.49
2018-01-07T18:52:34.237Z,69.22
2018-01-07T18:55:08.928Z,69.47
2018-01-07T18:57:37.007Z,69.97
2018-01-07T19:00:06.718Z,69.15
2018-01-07T19:02:34.869Z,70.01
2018-01-07T19:05:06.021Z,69.63
2018-01-07T19:07:34.061Z,69.49
2018-01-07T19:10:05.964Z,70.06
2018-01-07T19:12:34.027Z,69.84
2018-01-07T19:15:08.337Z,70.38
2018-01-07T19:17:36.370Z,69.84
2018-01-07T19:20:07.761Z,69.49
2018-01-07T19:22:35.750Z,69.79
2018-01-07T19:25:07.232Z,69.97
2018-01-07T19:27:35.252Z,69.92
2018-01-07T19:30:06.626Z,70.97
2018-01-07T19:32:34.665Z,70.65
2018-01-07T19:35:06.296Z,70.04
2018-01-07T19:37:34.316Z,70.37
2018-01-07T19:40:05.400Z,70.25
2018-01-07T19:42:33.445Z,70.45
2018-01-07T19:45:04.853Z,70.01
2018-01-07T19:47:32.870Z,70.37
2018-01-07T19:50:04.102Z,70.29
2018-01-07T19:52:32.126Z,70.53
2018-01-07T19:55:00.148Z,70.55
2018-01-07T19:57:34.165Z,70.45
2018-01-07T20:00:05.409Z,70.37
2018-01-07T20:02:33.455Z,70.50
2018-01-07T20:05:06.437Z,70.22
2018-01-07T20:07:34.452Z,70.70
2018-01-07T20:10:05.524Z,70.93
2018-01-07T20:12:33.572Z,70.57
2018-01-07T20:15:04.813Z,70.57
2018-01-07T20:17:32.906Z,70.56
2018-01-07T20:22:35.613Z,70.98
2018-01-07T20:25:06.284Z,70.78
2018-01-07T20:27:34.367Z,70.80
2018-01-07T20:30:05.941Z,70.76
2018-01-07T20:32:34.118Z,70.90
2018-01-07T20:35:09.096Z,71.05
2018-01-07T20:37:37.145Z,70.98
2018-01-07T20:40:06.739Z,71.28
2018-01-07T20:42:34.744Z,71.08
2018-01-07T20:45:06.351Z,71.35
2018-01-07T20:47:34.392Z,71.54
2018-01-07T20:50:05.889Z,71.82
2018-01-07T20:52:33.928Z,72.29
2018-01-07T20:55:08.468Z,71.66
2018-01-07T20:57:36.473Z,71.54
2018-01-07T21:00:06.478Z,71.83
2018-01-07T21:02:34.696Z,71.66
2018-01-07T21:05:06.334Z,71.69
2018-01-07T21:07:34.349Z,71.54
2018-01-07T21:10:06.054Z,71.48
2018-01-07T21:12:34.084Z,71.64
2018-01-07T21:15:08.493Z,72.22
2018-01-07T21:17:36.525Z,71.91
2018-01-07T21:20:07.958Z,71.81
2018-01-07T21:22:36.026Z,71.67
2018-01-07T21:25:07.457Z,72.15
2018-01-07T21:27:35.751Z,71.97
2018-01-07T21:30:06.896Z,72.15
2018-01-07T21:32:34.936Z,72.05
2018-01-07T21:35:06.136Z,72.18
2018-01-07T21:37:34.139Z,72.19
2018-01-07T21:40:05.442Z,72.01
2018-01-07T21:42:33.484Z,72.14
2018-01-07T21:45:04.646Z,72.24
2018-01-07T21:47:32.640Z,72.27
2018-01-07T21:50:00.730Z,72.63
2018-01-07T21:52:31.450Z,72.40
2018-01-07T21:54:59.526Z,72.18
2018-01-07T21:57:27.553Z,72.63
2018-01-07T22:00:08.686Z,72.80
2018-01-07T22:02:45.515Z,72.62
2018-01-07T22:05:16.386Z,72.78
2018-01-07T22:07:44.424Z,72.54
2018-01-07T22:10:12.450Z,72.62
2018-01-07T22:12:40.476Z,72.69
2018-01-07T22:15:08.482Z,72.47
2018-01-07T22:17:36.813Z,73.35
2018-01-07T22:20:07.753Z,72.48
2018-01-07T22:22:35.762Z,72.85
2018-01-07T22:25:07.281Z,72.63
2018-01-07T22:27:35.540Z,72.41
2018-01-07T22:30:06.396Z,72.56
2018-01-07T22:32:35.322Z,72.97
2018-01-07T22:35:06.490Z,73.09
2018-01-07T22:37:34.536Z,73.11
2018-01-07T22:40:06.236Z,73.45
2018-01-07T22:42:34.276Z,74.48
2018-01-07T22:45:05.538Z,73.50
2018-01-07T22:47:39.083Z,73.27
2018-01-07T22:50:07.117Z,73.48
2018-01-07T22:52:35.154Z,73.92
2018-01-07T22:55:06.896Z,73.62
2018-01-07T22:57:34.918Z,74.24
2018-01-07T23:00:06.509Z,73.65
2018-01-07T23:02:34.862Z,74.73
2018-01-07T23:05:09.202Z,74.85
2018-01-07T23:07:37.221Z,74.23
2018-01-07T23:10:06.567Z,74.48
2018-01-07T23:12:34.572Z,74.28
2018-01-07T23:15:05.656Z,74.47
2018-01-07T23:17:33.680Z,74.30
2018-01-07T23:22:34.368Z,74.79
2018-01-07T23:25:05.838Z,74.38
2018-01-07T23:27:33.851Z,74.36
2018-01-07T23:30:04.884Z,74.10
2018-01-07T23:32:32.900Z,74.16
2018-01-07T23:35:05.632Z,74.25
2018-01-07T23:37:33.638Z,74.22
2018-01-07T23:40:04.944Z,74.60
2018-01-07T23:42:32.973Z,74.32
2018-01-07T23:45:05.838Z,74.53
2018-01-07T23:47:33.853Z,74.35
2018-01-07T23:50:08.201Z,74.72
2018-01-07T23:52:36.537Z,74.60
2018-01-07T23:55:07.509Z,75.06
2018-01-07T23:57:35.557Z,74.79
